Time;durP1;ratioP1;P1;durP2;ratioP2;P2;SDS_P1;SDS_P2;PMS_P1;PMS_P2;Temp;Humidity;BMP_temperature;BMP_pressure;BME280_temperature;BME280_humidity;BME280_pressure;Samples;Min_cycle;Max_cycle;Signal;HPM_P1;HPM_P2
2022/04/16 00:01:04;;;;;;;;;17.00;17.00;;;;;16.18;51.57;102188.84;5087238;27;45559;-68
2022/04/16 00:03:31;;;;;;;;;20.00;17.67;;;;;15.66;51.75;102117.81;5099373;27;45402;-68
2022/04/16 00:05:57;;;;;;;;;23.33;18.67;;;;;15.66;51.97;102120.50;5098516;27;46820;-68
2022/04/16 00:08:24;;;;;;;;;18.67;15.00;;;;;16.08;51.87;102191.56;5098481;27;45335;-67
2022/04/16 00:10:51;;;;;;;;;16.00;16.00;;;;;16.06;51.64;102181.97;5099073;27;45203;-69
2022/04/16 00:13:18;;;;;;;;;16.00;16.00;;;;;16.06;51.93;102192.69;5099232;27;45557;-67
2022/04/16 00:15:46;;;;;;;;;15.00;15.00;;;;;16.09;52.09;102192.41;5086034;27;47226;-68
2022/04/16 00:18:12;;;;;;;;;17.67;16.00;;;;;16.04;52.11;102200.88;5083334;27;45459;-68
2022/04/16 00:20:40;;;;;;;;;13.67;13.67;;;;;15.82;51.91;102158.31;5080395;27;45396;-68
2022/04/16 00:23:06;;;;;;;;;15.00;13.00;;;;;15.97;52.06;102172.94;5098927;27;45514;-68
2022/04/16 00:25:34;;;;;;;;;17.33;15.67;;;;;15.93;52.18;102178.72;5080038;27;46118;-68
2022/04/16 00:28:03;;;;;;;;;15.00;14.33;;;;;15.91;52.34;102184.25;5098455;27;45374;-69
2022/04/16 00:30:30;;;;;;;;;18.33;16.33;;;;;15.82;52.72;102182.44;5095343;27;45511;-69
2022/04/16 00:32:57;;;;;;;;;18.67;18.33;;;;;15.81;52.72;102167.31;5098791;27;45179;-68
2022/04/16 00:35:23;;;;;;;;;21.67;19.67;;;;;15.86;52.91;102174.94;5098217;27;46614;-68
2022/04/16 00:37:49;;;;;;;;;19.33;17.67;;;;;15.52;53.06;102117.22;5097849;27;45436;-68
2022/04/16 00:40:14;;;;;;;;;20.33;19.67;;;;;15.79;53.40;102182.69;5098416;27;45321;-68
2022/04/16 00:42:44;;;;;;;;;18.00;17.00;;;;;15.78;53.65;102183.69;5080337;27;45480;-68
2022/04/16 00:45:10;;;;;;;;;21.67;19.67;;;;;15.78;53.79;102181.00;5086918;27;45824;-68
2022/04/16 00:47:36;;;;;;;;;18.33;16.67;;;;;15.80;53.64;102187.06;5059065;27;46945;-68
2022/04/16 00:50:06;;;;;;;;;21.33;20.00;;;;;15.61;53.90;102166.47;5077777;28;45323;-69
2022/04/16 00:52:31;;;;;;;;;24.00;20.67;;;;;15.70;54.25;102180.88;5060487;28;45469;-68
2022/04/16 00:54:57;;;;;;;;;16.67;15.67;;;;;15.28;54.28;102114.16;5077536;28;46382;-69
2022/04/16 00:57:25;;;;;;;;;18.33;16.67;;;;;15.52;54.49;102164.63;5090180;27;45334;-69
2022/04/16 00:59:51;;;;;;;;;21.67;19.00;;;;;15.49;54.84;102173.81;5098247;27;45362;-68
2022/04/16 01:02:17;;;;;;;;;21.33;21.00;;;;;14.97;55.06;102088.47;5098055;27;45357;-67
2022/04/16 01:04:43;;;;;;;;;18.67;12.67;;;;;15.33;55.13;102154.75;5097769;27;45465;-68
2022/04/16 01:07:11;;;;;;;;;18.33;18.33;;;;;15.43;55.04;102174.38;5097921;27;45573;-69
2022/04/16 01:09:43;;;;;;;;;18.00;17.00;;;;;15.37;55.03;102164.19;5078651;27;45869;-68
2022/04/16 01:12:09;;;;;;;;;20.67;16.67;;;;;15.49;54.84;102162.22;5083645;27;45375;-69
2022/04/16 01:14:34;;;;;;;;;21.33;18.33;;;;;15.51;55.00;102170.97;5077496;28;45418;-68
2022/04/16 01:16:59;;;;;;;;;21.33;15.67;;;;;15.13;54.92;102105.69;5058897;28;45369;-68
2022/04/16 01:19:25;;;;;;;;;20.00;20.00;;;;;14.81;55.71;102086.31;5078064;27;45825;-68
2022/04/16 01:21:50;;;;;;;;;24.00;21.67;;;;;15.29;56.06;102174.78;5059421;28;45409;-68
2022/04/16 01:24:16;;;;;;;;;19.33;17.67;;;;;15.27;56.03;102174.09;5077484;28;45926;-68
2022/04/16 01:26:41;;;;;;;;;21.00;19.33;;;;;15.13;55.80;102151.22;5077213;27;45601;-69
2022/04/16 01:29:08;;;;;;;;;24.00;19.00;;;;;15.35;55.62;102182.25;5059122;28;45213;-69
2022/04/16 01:31:34;;;;;;;;;25.33;23.67;;;;;14.92;55.60;102102.28;5077282;28;45501;-70
2022/04/16 01:34:01;;;;;;;;;22.00;22.00;;;;;15.24;55.46;102162.81;5076761;28;45328;-68
2022/04/16 01:36:30;;;;;;;;;24.00;18.67;;;;;15.29;55.85;102172.09;5077206;28;45281;-68
2022/04/16 01:38:56;;;;;;;;;24.00;19.33;;;;;15.15;55.76;102156.44;5059115;28;45347;-68
2022/04/16 01:41:25;;;;;;;;;25.67;23.00;;;;;15.32;55.76;102173.66;5091026;27;45169;-68
2022/04/16 01:43:51;;;;;;;;;27.33;20.00;;;;;15.24;55.96;102185.09;5078991;27;47665;-69
2022/04/16 01:46:17;;;;;;;;;18.00;18.00;;;;;15.10;56.22;102154.19;5079124;27;45558;-68
2022/04/16 01:48:43;;;;;;;;;23.33;23.00;;;;;15.11;56.07;102174.63;5096857;27;45427;-68
2022/04/16 01:51:08;;;;;;;;;24.67;22.00;;;;;14.96;56.59;102159.06;5097578;27;45307;-68
2022/04/16 01:53:34;;;;;;;;;23.00;19.00;;;;;14.98;56.75;102183.88;5097252;27;46396;-68
2022/04/16 01:56:00;;;;;;;;;27.33;25.67;;;;;14.99;57.03;102180.22;5079713;27;45632;-68
2022/04/16 01:58:25;;;;;;;;;27.67;25.67;;;;;15.01;57.15;102187.13;5096073;27;45283;-68
2022/04/16 02:00:50;;;;;;;;;26.33;26.33;;;;;15.00;57.15;102182.75;5097637;27;45381;-69
2022/04/16 02:03:16;;;;;;;;;24.00;23.00;;;;;14.97;56.95;102192.91;5097179;27;45891;-69
2022/04/16 02:05:42;;;;;;;;;22.33;22.33;;;;;14.99;56.92;102188.25;5095374;27;45409;-68
2022/04/16 02:08:07;;;;;;;;;29.00;26.00;;;;;14.72;57.47;102167.47;5097066;27;45426;-67
2022/04/16 02:10:34;;;;;;;;;22.33;20.67;;;;;14.68;58.02;102185.66;5074609;28;45634;-68
2022/04/16 02:13:00;;;;;;;;;27.67;27.00;;;;;14.69;57.81;102190.00;5076624;28;46688;-68
2022/04/16 02:15:27;;;;;;;;;28.33;24.33;;;;;14.72;57.80;102179.03;5076431;28;45304;-68
2022/04/16 02:17:55;;;;;;;;;23.33;23.00;;;;;14.79;57.89;102182.84;5079853;27;45374;-69
2022/04/16 02:20:22;;;;;;;;;32.33;29.67;;;;;14.30;57.53;102101.53;5097167;27;45433;-68
2022/04/16 02:22:47;;;;;;;;;24.00;24.00;;;;;14.87;57.54;102180.34;5097174;27;47229;-68
2022/04/16 02:25:15;;;;;;;;;23.00;22.00;;;;;14.85;57.67;102184.16;5080153;28;45219;-67
2022/04/16 02:27:41;;;;;;;;;23.67;21.33;;;;;14.78;57.69;102182.97;5080099;28;45352;-68
2022/04/16 02:30:09;;;;;;;;;25.00;23.67;;;;;14.63;57.97;102174.50;5080189;28;45505;-68
2022/04/16 02:32:38;;;;;;;;;27.67;23.33;;;;;14.68;58.20;102187.47;5079784;28;45972;-68
2022/04/16 02:35:09;;;;;;;;;22.33;20.67;;;;;14.63;58.36;102190.56;5079969;28;45452;-68
2022/04/16 02:37:34;;;;;;;;;26.33;23.67;;;;;14.58;57.94;102176.72;5087108;27;45387;-69
2022/04/16 02:40:00;;;;;;;;;30.00;29.00;;;;;14.52;58.62;102182.63;5082118;27;45438;-68
2022/04/16 02:42:25;;;;;;;;;30.00;26.00;;;;;14.32;58.88;102184.31;5079764;28;46496;-68
2022/04/16 02:47:35;;;;;;;;;29.67;26.33;;;;;14.17;59.22;102183.81;5080109;27;45652;-68
2022/04/16 02:50:00;;;;;;;;;24.00;21.33;;;;;14.17;59.79;102191.84;5079745;28;45625;-67
2022/04/16 02:52:26;;;;;;;;;32.33;27.67;;;;;14.06;59.62;102180.38;5073900;27;48721;-68
2022/04/16 02:54:54;;;;;;;;;29.00;25.67;;;;;14.11;59.91;102194.22;5100244;27;45256;-69
2022/04/16 02:57:20;;;;;;;;;23.33;21.00;;;;;14.10;59.69;102187.16;5081741;27;45554;-68
2022/04/16 02:59:46;;;;;;;;;23.33;20.67;;;;;14.08;59.65;102186.44;5081944;27;45564;-68
2022/04/16 03:02:13;;;;;;;;;31.67;29.67;;;;;13.87;59.80;102155.22;5081586;27;46305;-68
2022/04/16 03:04:38;;;;;;;;;28.33;25.67;;;;;13.98;59.78;102178.34;5099920;27;45521;-68
2022/04/16 03:07:04;;;;;;;;;30.67;28.67;;;;;13.76;60.11;102146.41;5099328;27;45454;-68
2022/04/16 03:09:30;;;;;;;;;30.33;30.00;;;;;13.97;60.28;102179.34;5099784;27;45623;-68
2022/04/16 03:11:55;;;;;;;;;38.33;31.33;;;;;13.92;59.78;102166.38;5099689;27;45955;-68
2022/04/16 03:19:49;;;;;;;;;28.33;27.00;;;;;13.82;60.38;102173.50;5083129;27;45255;-69
2022/04/16 03:22:15;;;;;;;;;33.67;30.33;;;;;13.86;60.17;102179.41;5099482;27;46433;-68
2022/04/16 03:24:41;;;;;;;;;30.33;24.67;;;;;13.27;60.59;102103.31;5099601;27;45422;-68
2022/04/16 03:27:07;;;;;;;;;25.33;24.00;;;;;13.64;60.60;102181.22;5099654;27;45381;-69
2022/04/16 03:29:33;;;;;;;;;34.67;29.67;;;;;13.65;60.90;102176.72;5081226;27;45492;-68
2022/04/16 03:31:59;;;;;;;;;25.00;20.67;;;;;13.65;61.01;102179.41;5084683;27;46859;-69
2022/04/16 03:34:24;;;;;;;;;29.67;26.00;;;;;13.66;61.04;102181.94;5084544;27;45450;-68
2022/04/16 03:36:50;;;;;;;;;22.67;22.67;;;;;13.67;60.56;102170.28;5080932;27;45549;-67
2022/04/16 03:39:15;;;;;;;;;29.67;28.00;;;;;13.72;60.44;102183.25;5099673;27;45162;-67
2022/04/16 03:41:41;;;;;;;;;28.33;25.33;;;;;13.74;60.34;102185.78;5099052;27;46375;-68
2022/04/16 03:44:07;;;;;;;;;33.33;30.33;;;;;13.65;60.34;102168.72;5080949;27;45375;-70
2022/04/16 03:46:32;;;;;;;;;28.67;23.67;;;;;13.18;60.85;102104.06;5081117;27;45213;-68
2022/04/16 03:48:59;;;;;;;;;29.33;29.00;;;;;13.51;60.55;102164.53;5098073;27;45347;-68
2022/04/16 03:51:26;;;;;;;;;30.33;28.33;;;;;13.67;60.34;102180.13;5099221;27;46336;-68
2022/04/16 03:53:52;;;;;;;;;30.33;28.33;;;;;13.74;60.16;102180.44;5099290;27;45318;-68
2022/04/16 04:01:45;;;;;;;;;34.33;30.00;;;;;13.60;60.06;102173.56;5098846;27;45661;-69
2022/04/16 04:04:11;;;;;;;;;30.67;28.67;;;;;13.09;61.15;102094.13;5081113;27;45440;-67
2022/04/16 04:06:36;;;;;;;;;29.67;28.33;;;;;13.32;60.72;102143.00;5078607;28;45371;-68
2022/04/16 04:09:02;;;;;;;;;32.67;31.00;;;;;13.48;60.63;102167.44;5060410;28;45317;-69
2022/04/16 04:11:27;;;;;;;;;32.67;30.00;;;;;13.27;60.70;102138.03;5078053;28;45491;-69
2022/04/16 04:13:52;;;;;;;;;30.67;28.67;;;;;13.49;60.32;102170.97;5060008;28;45929;-67
2022/04/16 04:16:19;;;;;;;;;36.00;30.33;;;;;13.25;60.71;102141.81;5078508;28;45252;-68
2022/04/16 04:18:44;;;;;;;;;33.67;31.33;;;;;13.42;60.30;102167.97;5076637;28;45485;-68
2022/04/16 04:21:10;;;;;;;;;28.00;26.33;;;;;13.50;60.04;102184.19;5078076;28;45556;-68
2022/04/16 04:23:35;;;;;;;;;28.00;26.00;;;;;13.45;59.76;102181.06;5078382;28;45256;-67
2022/04/16 04:26:01;;;;;;;;;31.33;25.67;;;;;13.00;60.40;102111.75;5077891;28;45389;-67
2022/04/16 04:28:26;;;;;;;;;32.67;29.67;;;;;13.36;59.85;102171.97;5078146;28;45412;-68
2022/04/16 04:30:51;;;;;;;;;28.67;28.67;;;;;13.33;59.63;102161.56;5079738;27;46472;-68
2022/04/16 04:33:17;;;;;;;;;32.67;29.67;;;;;13.36;60.39;102187.16;5079833;27;45598;-68
2022/04/16 04:35:45;;;;;;;;;33.00;30.67;;;;;13.24;60.15;102188.19;5098652;27;45955;-68
2022/04/16 04:38:10;;;;;;;;;33.33;30.67;;;;;13.20;60.03;102166.19;5098696;27;45412;-68
2022/04/16 04:40:35;;;;;;;;;31.67;28.33;;;;;13.40;60.34;102200.13;5098483;27;46270;-68
2022/04/16 04:43:01;;;;;;;;;31.67;29.00;;;;;13.30;59.61;102171.66;5098169;27;45489;-68
2022/04/16 04:45:26;;;;;;;;;34.67;30.00;;;;;13.49;59.47;102193.19;5093130;27;45364;-69
2022/04/16 04:47:51;;;;;;;;;31.33;28.00;;;;;13.43;59.61;102183.03;5095733;27;45476;-68
2022/04/16 04:50:17;;;;;;;;;26.00;19.00;;;;;13.46;59.52;102188.09;5077122;28;45323;-68
2022/04/16 04:52:42;;;;;;;;;26.33;25.00;;;;;13.48;59.15;102188.81;5084945;27;45555;-67
2022/04/16 04:55:12;;;;;;;;;32.00;28.67;;;;;13.39;59.33;102187.75;5098312;27;45462;-68
2022/04/16 04:57:39;;;;;;;;;31.00;26.67;;;;;13.45;59.55;102194.44;5096633;27;45433;-68
2022/04/16 05:00:06;;;;;;;;;32.67;30.33;;;;;13.36;60.15;102192.50;5097800;27;47106;-68
2022/04/16 05:02:45;;;;;;;;;35.67;32.33;;;;;13.03;59.54;102145.38;5098045;27;45304;-69
2022/04/16 05:05:11;;;;;;;;;36.67;32.67;;;;;13.23;60.11;102200.69;5097235;27;45500;-69
2022/04/16 05:07:37;;;;;;;;;38.00;32.67;;;;;13.33;59.79;102203.44;5098229;27;45527;-67
2022/04/16 05:10:04;;;;;;;;;38.67;31.67;;;;;13.26;59.77;102191.59;5079007;27;47444;-69
2022/04/16 05:12:29;;;;;;;;;32.00;29.33;;;;;13.02;59.54;102157.88;5097636;27;45400;-69
2022/04/16 05:14:54;;;;;;;;;36.00;29.00;;;;;13.38;59.33;102203.91;5077599;27;45472;-69
2022/04/16 05:17:20;;;;;;;;;38.33;32.33;;;;;13.29;59.51;102189.50;5077529;28;45564;-68
2022/04/16 05:19:45;;;;;;;;;33.00;30.00;;;;;13.34;59.62;102194.47;5073427;28;47714;-68
2022/04/16 05:22:11;;;;;;;;;34.33;31.33;;;;;13.30;59.24;102193.03;5077335;28;45412;-68
2022/04/16 05:24:36;;;;;;;;;43.33;35.67;;;;;13.50;58.69;102218.09;5077902;28;45410;-68
2022/04/16 05:27:01;;;;;;;;;40.00;33.00;;;;;13.43;58.81;102215.09;5077830;27;45311;-69
2022/04/16 05:29:48;;;;;;;;;38.00;31.67;;;;;13.50;59.19;102218.94;5076843;28;46904;-68
2022/04/16 05:32:12;;;;;;;;;26.33;24.33;;;;;13.46;58.78;102214.81;5076774;28;45399;-70
2022/04/16 05:34:37;;;;;;;;;36.67;33.33;;;;;13.39;58.90;102225.16;5076741;28;45344;-69
2022/04/16 05:37:03;;;;;;;;;41.33;34.67;;;;;13.48;58.74;102234.25;5077217;28;45378;-68
2022/04/16 05:39:28;;;;;;;;;37.00;32.00;;;;;13.45;58.96;102233.66;5058663;28;46512;-68
2022/04/16 05:41:54;;;;;;;;;36.33;32.33;;;;;13.17;58.72;102200.28;5083169;27;45170;-69
2022/04/16 05:44:19;;;;;;;;;41.33;33.33;;;;;13.36;59.05;102253.94;5097504;27;45565;-67
2022/04/16 05:46:44;;;;;;;;;33.67;30.00;;;;;13.24;58.70;102246.94;5097245;27;45529;-68
2022/04/16 05:49:10;;;;;;;;;38.33;32.00;;;;;13.37;58.62;102247.63;5083212;27;45300;-69
2022/04/16 05:51:35;;;;;;;;;40.67;33.67;;;;;13.44;58.57;102246.16;5077065;28;45242;-69
2022/04/16 05:54:02;;;;;;;;;38.33;32.33;;;;;13.36;58.77;102240.59;5077115;28;45339;-69
2022/04/16 05:56:28;;;;;;;;;38.67;34.67;;;;;12.64;58.35;102107.63;5086234;27;45470;-69
2022/04/16 05:58:53;;;;;;;;;40.00;34.33;;;;;13.38;58.66;102250.16;5100584;27;45969;-69
2022/04/16 06:01:19;;;;;;;;;37.67;34.00;;;;;13.47;58.45;102250.41;5082169;27;45427;-69
2022/04/16 06:03:45;;;;;;;;;40.33;36.00;;;;;13.01;58.28;102165.97;5074487;28;45415;-68
2022/04/16 06:06:11;;;;;;;;;32.67;30.67;;;;;13.48;58.18;102255.63;5062330;28;45262;-69
2022/04/16 06:08:37;;;;;;;;;33.33;32.00;;;;;13.53;58.17;102263.25;5079397;27;45547;-69
2022/04/16 06:11:04;;;;;;;;;35.00;30.00;;;;;13.47;57.93;102239.72;5083987;27;45678;-69
2022/04/16 06:13:32;;;;;;;;;41.00;34.67;;;;;13.50;58.05;102248.31;5080653;27;45379;-67
2022/04/16 06:15:58;;;;;;;;;40.00;33.33;;;;;13.59;58.33;102265.41;5087614;27;45527;-68
2022/04/16 06:18:24;;;;;;;;;46.67;37.67;;;;;13.49;58.25;102260.00;5090141;27;46907;-67
2022/04/16 06:20:49;;;;;;;;;41.33;35.00;;;;;13.62;58.03;102267.84;5069466;27;45397;-68
2022/04/16 06:23:15;;;;;;;;;44.33;35.00;;;;;13.64;57.76;102272.09;5062451;28;45481;-70
2022/04/16 06:25:41;;;;;;;;;44.33;37.33;;;;;13.74;57.97;102268.66;5079765;28;45406;-69
2022/04/16 06:28:06;;;;;;;;;44.67;37.33;;;;;13.57;57.77;102224.59;5066126;27;47849;-68
2022/04/16 06:30:32;;;;;;;;;46.00;37.33;;;;;14.11;56.92;102269.09;5094318;27;45503;-68
2022/04/16 06:32:57;;;;;;;;;38.33;36.00;;;;;14.26;56.24;102268.66;5099566;27;45492;-68
2022/04/16 06:35:23;;;;;;;;;38.67;36.33;;;;;14.49;55.91;102260.50;5098694;27;45479;-68
2022/04/16 06:37:48;;;;;;;;;40.67;33.67;;;;;14.90;54.28;102227.44;5081925;27;48902;-68
2022/04/16 06:40:14;;;;;;;;;39.33;34.33;;;;;15.17;52.39;102206.19;5100489;27;45206;-68
2022/04/16 06:42:40;;;;;;;;;42.00;36.33;;;;;15.35;51.41;102203.69;5098156;27;45182;-68
2022/04/16 06:45:07;;;;;;;;;41.00;34.00;;;;;16.16;50.81;102273.16;5078218;27;45488;-69
2022/04/16 06:47:32;;;;;;;;;44.00;37.00;;;;;16.53;49.60;102266.00;5077573;27;45565;-70
2022/04/16 06:49:58;;;;;;;;;37.33;35.33;;;;;16.73;49.20;102250.72;5084874;27;45360;-69
2022/04/16 06:52:24;;;;;;;;;35.33;31.00;;;;;17.18;48.10;102264.22;5079967;27;45468;-69
2022/04/16 06:54:50;;;;;;;;;39.00;33.33;;;;;17.44;47.04;102225.88;5081780;27;45517;-68
2022/04/16 06:57:16;;;;;;;;;33.67;30.33;;;;;17.87;45.99;102252.84;5064671;28;47429;-67
2022/04/16 06:59:42;;;;;;;;;36.00;33.33;;;;;18.04;44.79;102237.69;5079182;28;45410;-68
2022/04/16 07:02:09;;;;;;;;;45.33;36.00;;;;;17.74;44.59;102142.09;5083993;27;45510;-69
2022/04/16 07:04:34;;;;;;;;;41.33;32.67;;;;;18.88;43.95;102258.59;5087194;27;45540;-69
2022/04/16 07:07:00;;;;;;;;;44.00;33.67;;;;;19.06;43.42;102251.28;5081787;27;46453;-71
2022/04/16 07:09:26;;;;;;;;;43.33;35.33;;;;;19.18;42.58;102254.50;5060821;27;45538;-69
2022/04/16 07:11:51;;;;;;;;;37.67;35.00;;;;;19.42;42.29;102245.63;5076140;28;45546;-66
2022/04/16 07:14:17;;;;;;;;;41.00;35.33;;;;;19.86;40.80;102254.34;5064214;27;45515;-68
2022/04/16 07:16:42;;;;;;;;;40.33;34.67;;;;;19.74;40.58;102240.31;5084197;27;45632;-68
2022/04/16 07:19:09;;;;;;;;;45.33;36.33;;;;;19.68;39.92;102181.63;5086727;27;45785;-67
2022/04/16 07:21:34;;;;;;;;;28.67;26.33;;;;;20.30;40.46;102230.50;5085840;27;46328;-68
2022/04/16 07:24:00;;;;;;;;;37.00;31.33;;;;;20.72;39.42;102244.78;5095185;27;45540;-69
2022/04/16 07:26:25;;;;;;;;;38.67;34.67;;;;;21.03;38.83;102253.78;5089195;27;46598;-71
2022/04/16 07:28:50;;;;;;;;;36.67;32.00;;;;;21.30;37.86;102249.78;5088036;27;45474;-69
2022/04/16 07:31:16;;;;;;;;;25.00;23.67;;;;;21.42;36.50;102252.91;5098921;27;45308;-70
2022/04/16 07:33:41;;;;;;;;;33.00;29.00;;;;;21.21;37.52;102253.50;5089752;27;45529;-69
2022/04/16 07:36:07;;;;;;;;;32.67;30.00;;;;;20.95;36.73;102205.97;5073314;27;46760;-69
2022/04/16 07:38:32;;;;;;;;;30.67;30.33;;;;;21.10;36.94;102254.75;5080037;27;45517;-67
2022/04/16 07:40:58;;;;;;;;;33.67;31.00;;;;;21.28;37.88;102262.63;5084221;27;45385;-68
2022/04/16 07:43:23;;;;;;;;;32.67;31.67;;;;;21.49;36.82;102240.38;5097785;27;45595;-69
2022/04/16 07:45:49;;;;;;;;;25.33;25.33;;;;;21.81;36.33;102237.38;5084001;27;46624;-67
2022/04/16 07:48:14;;;;;;;;;30.67;28.67;;;;;21.97;35.69;102263.50;5071916;27;45618;-69
2022/04/16 07:50:40;;;;;;;;;37.00;32.67;;;;;21.86;35.60;102272.06;5073480;27;45415;-68
2022/04/16 07:53:06;;;;;;;;;33.33;30.00;;;;;21.65;35.99;102275.44;5091617;27;45616;-68
2022/04/16 07:55:32;;;;;;;;;37.67;33.33;;;;;21.86;36.33;102277.47;5097822;27;46504;-66
2022/04/16 07:57:58;;;;;;;;;32.00;30.00;;;;;21.09;36.03;102192.72;5098365;27;45497;-68
2022/04/16 08:00:24;;;;;;;;;30.00;29.67;;;;;21.13;36.14;102237.31;5079764;27;45354;-69
2022/04/16 08:02:50;;;;;;;;;29.00;29.00;;;;;21.27;36.61;102255.53;5083125;27;45629;-70
2022/04/16 08:05:15;;;;;;;;;31.00;30.00;;;;;21.61;36.01;102282.22;5090255;27;46422;-71
2022/04/16 08:07:40;;;;;;;;;24.33;24.00;;;;;21.72;35.55;102284.50;5082963;27;45416;-72
2022/04/16 08:10:07;;;;;;;;;33.33;30.33;;;;;21.92;36.10;102282.16;5088886;27;45842;-72
2022/04/16 08:12:32;;;;;;;;;39.00;32.67;;;;;22.14;35.53;102248.81;5084413;27;45541;-75
2022/04/16 08:15:00;;;;;;;;;23.67;22.00;;;;;22.23;34.78;102256.91;5079042;27;45353;-72
2022/04/16 08:17:26;;;;;;;;;30.00;28.67;;;;;22.28;35.27;102255.31;5078193;27;45528;-72
2022/04/16 08:19:51;;;;;;;;;35.67;33.67;;;;;22.73;34.67;102264.31;5092581;27;45419;-70
2022/04/16 08:22:21;;;;;;;;;32.33;31.00;;;;;22.91;33.94;102275.66;5083557;27;45356;-71
2022/04/16 08:27:32;;;;;;;;;24.33;19.67;;;;;22.71;34.21;102288.06;5082245;27;45450;-71
2022/04/16 08:29:57;;;;;;;;;27.67;27.33;;;;;22.87;34.59;102289.78;5083411;27;45471;-73
2022/04/16 08:32:22;;;;;;;;;34.00;31.33;;;;;22.99;33.11;102266.56;5084918;27;45471;-73
2022/04/16 08:34:48;;;;;;;;;34.67;31.00;;;;;23.08;33.23;102287.16;5079133;27;45538;-66
2022/04/16 08:37:13;;;;;;;;;26.00;26.00;;;;;23.34;33.62;102284.75;5077587;28;45319;-72
2022/04/16 08:39:38;;;;;;;;;34.33;32.00;;;;;23.60;32.15;102281.50;5084831;27;45426;-74
2022/04/16 08:42:04;;;;;;;;;29.33;28.00;;;;;23.75;32.69;102281.47;5098748;27;45497;-75
2022/04/16 08:44:31;;;;;;;;;32.67;30.00;;;;;24.14;31.84;102286.41;5098351;27;46200;-78
2022/04/16 08:47:00;;;;;;;;;30.33;27.33;;;;;24.48;31.09;102276.69;5079829;27;45710;-71
2022/04/16 08:49:26;;;;;;;;;31.67;28.67;;;;;24.60;30.88;102288.66;5092772;27;45514;-70
2022/04/16 08:51:52;;;;;;;;;31.33;30.00;;;;;24.90;30.69;102286.56;5080456;27;45386;-71
2022/04/16 08:54:18;;;;;;;;;31.67;29.33;;;;;24.87;30.25;102271.47;5078593;27;47908;-69
2022/04/16 08:56:43;;;;;;;;;34.67;32.33;;;;;24.80;30.22;102294.22;5079959;27;45593;-70
2022/04/16 08:59:09;;;;;;;;;32.00;29.67;;;;;24.50;30.91;102259.13;5095554;27;45579;-74
2022/04/16 09:01:35;;;;;;;;;28.00;24.67;;;;;24.83;30.33;102223.13;5093834;27;45402;-68
2022/04/16 09:04:06;;;;;;;;;33.33;30.67;;;;;25.88;29.27;102296.16;5077699;27;46304;-75
2022/04/16 09:06:31;;;;;;;;;32.33;30.00;;;;;26.12;28.94;102264.72;5079377;27;45298;-73
2022/04/16 09:09:09;;;;;;;;;30.33;29.67;;;;;26.90;27.68;102279.28;5094936;27;45361;-72
2022/04/16 09:11:35;;;;;;;;;29.67;26.33;;;;;27.42;27.49;102266.47;5084884;27;45515;-72
2022/04/16 09:14:00;;;;;;;;;34.00;30.00;;;;;27.56;26.08;102262.63;5062903;27;47129;-73
2022/04/16 09:16:26;;;;;;;;;32.33;30.33;;;;;27.80;25.89;102280.13;5060525;28;45413;-73
2022/04/16 09:18:52;;;;;;;;;27.00;26.00;;;;;28.16;25.72;102279.44;5077360;28;45248;-72
2022/04/16 09:21:20;;;;;;;;;24.00;22.00;;;;;28.93;25.01;102268.19;5076856;27;45599;-70
2022/04/16 09:23:47;;;;;;;;;24.33;24.33;;;;;29.56;23.68;102241.19;5096667;27;45578;-70
2022/04/16 09:26:36;;;;;;;;;30.00;29.00;;;;;30.12;22.72;102285.69;5078528;27;45423;-71
2022/04/16 09:29:13;;;;;;;;;23.67;22.33;;;;;29.89;23.04;102267.25;5097868;27;45503;-72
2022/04/16 09:31:49;;;;;;;;;27.67;25.00;;;;;31.08;21.85;102263.16;5077097;27;45512;-74
2022/04/16 09:34:20;;;;;;;;;24.33;22.33;;;;;31.48;21.49;102260.41;5081799;27;46496;-69
2022/04/16 09:36:46;;;;;;;;;29.67;27.67;;;;;32.05;21.25;102256.72;5064641;27;45836;-73
2022/04/16 09:39:12;;;;;;;;;28.00;25.00;;;;;32.80;20.19;102239.66;5093433;27;45419;-73
2022/04/16 09:41:40;;;;;;;;;25.00;24.67;;;;;33.60;19.49;102264.78;5082905;27;45280;-72
2022/04/16 09:44:20;;;;;;;;;20.67;20.67;;;;;34.61;19.39;102262.81;5078688;27;47989;-74
2022/04/16 09:46:49;;;;;;;;;29.67;27.00;;;;;34.58;18.68;102243.19;5088600;27;45503;-75
2022/04/16 09:49:36;;;;;;;;;25.33;24.67;;;;;34.32;19.00;102258.78;5092117;27;45569;-75
2022/04/16 09:52:05;;;;;;;;;21.33;21.33;;;;;34.44;17.84;102253.88;5090065;27;45659;-73
2022/04/16 09:54:33;;;;;;;;;17.33;17.33;;;;;33.96;17.93;102255.75;5070512;27;45830;-72
2022/04/16 09:57:02;;;;;;;;;20.67;19.00;;;;;34.52;17.72;102236.00;5083468;27;45466;-71
2022/04/16 09:59:35;;;;;;;;;21.00;21.00;;;;;34.53;17.76;102223.84;5095421;27;45782;-71
2022/04/16 10:02:03;;;;;;;;;18.67;17.67;;;;;35.22;17.41;102227.13;5087877;27;45501;-76
2022/04/16 10:04:29;;;;;;;;;20.00;20.00;;;;;35.13;16.93;102198.38;5083200;27;45774;-73
2022/04/16 10:06:55;;;;;;;;;18.33;17.67;;;;;35.39;17.75;102231.63;5086340;27;45494;-70
2022/04/16 10:09:22;;;;;;;;;21.67;20.00;;;;;34.30;17.63;102248.00;5078071;27;45354;-73
2022/04/16 10:14:37;;;;;;;;;13.67;13.67;;;;;31.30;20.75;102254.28;5097171;27;45303;-70
2022/04/16 10:17:16;;;;;;;;;21.67;20.33;;;;;30.29;21.81;102234.53;5078631;27;45324;-71
2022/04/16 10:19:48;;;;;;;;;21.67;21.67;;;;;29.55;22.54;102246.91;5078856;27;45329;-71
2022/04/16 10:22:24;;;;;;;;;21.00;20.33;;;;;28.67;23.86;102252.88;5097243;27;45374;-71
2022/04/16 10:24:51;;;;;;;;;22.67;21.33;;;;;27.46;25.40;102239.56;5096841;27;46632;-72
2022/04/16 10:27:31;;;;;;;;;18.67;18.00;;;;;26.42;26.87;102231.56;5078342;27;45481;-72
2022/04/16 10:30:01;;;;;;;;;22.33;21.33;;;;;25.70;27.79;102263.22;5078275;27;45420;-70
2022/04/16 10:32:38;;;;;;;;;25.00;23.00;;;;;25.29;28.01;102258.72;5078861;27;45649;-71
2022/04/16 10:35:05;;;;;;;;;22.67;21.67;;;;;24.86;28.80;102258.91;5077092;27;47510;-70
2022/04/16 10:37:41;;;;;;;;;17.33;17.33;;;;;24.27;28.94;102263.94;5076250;28;46254;-70
2022/04/16 10:40:23;;;;;;;;;20.00;18.33;;;;;24.15;29.62;102254.66;5076540;28;45393;-69
2022/04/16 10:42:51;;;;;;;;;18.33;17.67;;;;;22.96;30.89;102218.13;5078349;28;45435;-71
2022/04/16 10:45:17;;;;;;;;;21.00;17.00;;;;;22.34;32.43;102251.00;5079215;28;47895;-70
2022/04/16 10:47:43;;;;;;;;;20.67;17.33;;;;;22.06;32.57;102227.25;5080763;28;45576;-70
2022/04/16 10:50:17;;;;;;;;;15.33;14.00;;;;;21.94;31.70;102247.63;5078618;28;45332;-71
2022/04/16 10:53:03;;;;;;;;;15.33;15.33;;;;;21.68;32.36;102258.00;5061577;28;45530;-70
2022/04/16 10:55:32;;;;;;;;;16.33;13.67;;;;;21.38;32.45;102241.59;5077255;28;47768;-69
2022/04/16 10:58:01;;;;;;;;;14.33;11.67;;;;;21.18;32.88;102253.84;5079464;28;45448;-71
2022/04/16 11:00:46;;;;;;;;;15.67;15.67;;;;;21.23;33.24;102251.47;5079569;28;45372;-70
2022/04/16 11:03:26;;;;;;;;;19.67;19.33;;;;;20.98;34.12;102256.16;5079376;28;45521;-70
2022/04/16 11:06:00;;;;;;;;;11.00;10.33;;;;;20.86;34.67;102244.91;5079007;27;47042;-72
2022/04/16 11:08:26;;;;;;;;;18.67;17.33;;;;;20.75;34.85;102234.44;5079262;28;45498;-71
2022/04/16 11:11:01;;;;;;;;;21.00;20.33;;;;;20.15;35.24;102162.00;5061195;28;45448;-71
2022/04/16 11:13:29;;;;;;;;;18.67;17.67;;;;;20.52;36.15;102249.72;5079365;28;45564;-74
2022/04/16 11:15:56;;;;;;;;;25.33;23.33;;;;;20.29;36.33;102207.19;5060877;28;47193;-70
2022/04/16 11:18:21;;;;;;;;;20.00;18.67;;;;;20.12;36.41;102202.00;5079233;28;45392;-70
2022/04/16 11:20:55;;;;;;;;;19.00;19.00;;;;;20.23;37.05;102228.66;5079366;28;45487;-71
2022/04/16 11:23:25;;;;;;;;;21.33;20.67;;;;;19.88;36.46;102237.97;5079518;28;45265;-71
2022/04/16 11:34:17;;;;;;;;;17.67;16.67;;;;;19.38;37.28;102238.88;5079675;28;45406;-70
2022/04/16 11:36:48;;;;;;;;;19.33;14.33;;;;;19.61;37.30;102255.28;5078779;27;45889;-71